sensor_id;sensor_type;location;lat;lon;timestamp;temperature;humidity
3528;DHT22;1778;47.966;7.854;2024-01-27T00:00:56;5.40;99.90
3528;DHT22;1778;47.966;7.854;2024-01-27T00:01:57;5.40;99.90
3528;DHT22;1778;47.966;7.854;2024-01-27T00:02:58;5.40;99.90
3528;DHT22;1778;47.966;7.854;2024-01-27T00:04:00;5.40;99.90
3528;DHT22;1778;47.966;7.854;2024-01-27T00:05:02;5.40;99.90
3528;DHT22;1778;47.966;7.854;2024-01-27T00:06:05;5.40;99.90
3528;DHT22;1778;47.966;7.854;2024-01-27T00:07:07;5.40;99.90
3528;DHT22;1778;47.966;7.854;2024-01-27T00:08:08;5.40;99.90
3528;DHT22;1778;47.966;7.854;2024-01-27T00:09:10;5.40;99.90
3528;DHT22;1778;47.966;7.854;2024-01-27T00:10:11;5.50;99.90
3528;DHT22;1778;47.966;7.854;2024-01-27T00:11:13;5.50;99.90
3528;DHT22;1778;47.966;7.854;2024-01-27T00:12:15;5.50;99.90
3528;DHT22;1778;47.966;7.854;2024-01-27T00:13:17;5.50;99.90
3528;DHT22;1778;47.966;7.854;2024-01-27T00:14:18;5.40;99.90
3528;DHT22;1778;47.966;7.854;2024-01-27T00:15:20;5.40;99.90
3528;DHT22;1778;47.966;7.854;2024-01-27T00:16:21;5.40;99.90
3528;DHT22;1778;47.966;7.854;2024-01-27T00:17:23;5.30;99.90
3528;DHT22;1778;47.966;7.854;2024-01-27T00:18:26;5.30;99.90
3528;DHT22;1778;47.966;7.854;2024-01-27T00:19:28;5.30;99.90
3528;DHT22;1778;47.966;7.854;2024-01-27T00:20:30;5.30;99.90
3528;DHT22;1778;47.966;7.854;2024-01-27T00:21:32;5.30;99.90
3528;DHT22;1778;47.966;7.854;2024-01-27T00:22:34;5.30;99.90
3528;DHT22;1778;47.966;7.854;2024-01-27T00:23:35;5.30;99.90
3528;DHT22;1778;47.966;7.854;2024-01-27T00:24:37;5.20;99.90
3528;DHT22;1778;47.966;7.854;2024-01-27T00:25:38;5.20;99.90
3528;DHT22;1778;47.966;7.854;2024-01-27T00:26:40;5.10;99.90
3528;DHT22;1778;47.966;7.854;2024-01-27T00:27:41;5.20;99.90
3528;DHT22;1778;47.966;7.854;2024-01-27T00:28:43;5.20;99.90
3528;DHT22;1778;47.966;7.854;2024-01-27T00:29:44;5.10;99.90
3528;DHT22;1778;47.966;7.854;2024-01-27T00:30:46;5.10;99.90
3528;DHT22;1778;47.966;7.854;2024-01-27T00:31:48;5.10;99.90
3528;DHT22;1778;47.966;7.854;2024-01-27T00:32:50;5.00;99.90
3528;DHT22;1778;47.966;7.854;2024-01-27T00:33:52;5.00;99.90
3528;DHT22;1778;47.966;7.854;2024-01-27T00:34:54;5.00;99.90
3528;DHT22;1778;47.966;7.854;2024-01-27T00:35:55;4.90;99.90
3528;DHT22;1778;47.966;7.854;2024-01-27T00:36:56;4.90;99.90
3528;DHT22;1778;47.966;7.854;2024-01-27T00:37:58;4.90;99.90
3528;DHT22;1778;47.966;7.854;2024-01-27T00:38:59;4.90;99.90
3528;DHT22;1778;47.966;7.854;2024-01-27T00:40:01;4.90;99.90
3528;DHT22;1778;47.966;7.854;2024-01-27T00:41:03;4.80;99.90
3528;DHT22;1778;47.966;7.854;2024-01-27T00:42:04;4.80;99.90
3528;DHT22;1778;47.966;7.854;2024-01-27T00:43:06;4.80;99.90
3528;DHT22;1778;47.966;7.854;2024-01-27T00:44:07;4.80;99.90
3528;DHT22;1778;47.966;7.854;2024-01-27T00:45:08;4.80;99.90
3528;DHT22;1778;47.966;7.854;2024-01-27T00:46:10;4.80;99.90
3528;DHT22;1778;47.966;7.854;2024-01-27T00:47:11;4.70;99.90
3528;DHT22;1778;47.966;7.854;2024-01-27T00:48:13;4.70;99.90
3528;DHT22;1778;47.966;7.854;2024-01-27T00:49:15;4.60;99.90
3528;DHT22;1778;47.966;7.854;2024-01-27T00:50:17;4.60;99.90
3528;DHT22;1778;47.966;7.854;2024-01-27T00:51:18;4.50;99.90
3528;DHT22;1778;47.966;7.854;2024-01-27T00:52:20;4.50;99.90
3528;DHT22;1778;47.966;7.854;2024-01-27T00:53:21;4.50;99.90
3528;DHT22;1778;47.966;7.854;2024-01-27T00:54:23;4.50;99.90
3528;DHT22;1778;47.966;7.854;2024-01-27T00:55:27;4.40;99.90
3528;DHT22;1778;47.966;7.854;2024-01-27T00:56:28;4.40;99.90
3528;DHT22;1778;47.966;7.854;2024-01-27T00:57:30;4.40;99.90
3528;DHT22;1778;47.966;7.854;2024-01-27T00:58:32;4.40;99.90
3528;DHT22;1778;47.966;7.854;2024-01-27T00:59:33;4.40;99.90
3528;DHT22;1778;47.966;7.854;2024-01-27T01:00:34;4.30;99.90
3528;DHT22;1778;47.966;7.854;2024-01-27T01:01:36;4.30;99.90
3528;DHT22;1778;47.966;7.854;2024-01-27T01:02:38;4.30;99.90
3528;DHT22;1778;47.966;7.854;2024-01-27T01:03:40;4.20;99.90
3528;DHT22;1778;47.966;7.854;2024-01-27T01:04:41;4.30;99.90
3528;DHT22;1778;47.966;7.854;2024-01-27T01:05:43;4.30;99.90
3528;DHT22;1778;47.966;7.854;2024-01-27T01:06:45;4.30;99.90
3528;DHT22;1778;47.966;7.854;2024-01-27T01:07:47;4.30;99.90
3528;DHT22;1778;47.966;7.854;2024-01-27T01:08:48;4.30;99.90
3528;DHT22;1778;47.966;7.854;2024-01-27T01:09:50;4.30;99.90
3528;DHT22;1778;47.966;7.854;2024-01-27T01:10:52;4.20;99.90
3528;DHT22;1778;47.966;7.854;2024-01-27T01:11:53;4.20;99.90
3528;DHT22;1778;47.966;7.854;2024-01-27T01:12:56;4.10;99.90
3528;DHT22;1778;47.966;7.854;2024-01-27T01:13:58;4.10;99.90
3528;DHT22;1778;47.966;7.854;2024-01-27T01:15:00;4.10;99.90
3528;DHT22;1778;47.966;7.854;2024-01-27T01:16:01;4.00;99.90
3528;DHT22;1778;47.966;7.854;2024-01-27T01:17:04;4.00;99.90
3528;DHT22;1778;47.966;7.854;2024-01-27T01:18:06;4.00;99.90
3528;DHT22;1778;47.966;7.854;2024-01-27T01:19:08;4.00;99.90
3528;DHT22;1778;47.966;7.854;2024-01-27T01:20:10;3.90;99.90
3528;DHT22;1778;47.966;7.854;2024-01-27T01:21:11;3.90;99.90
3528;DHT22;1778;47.966;7.854;2024-01-27T01:22:13;3.90;99.90
3528;DHT22;1778;47.966;7.854;2024-01-27T01:23:14;3.90;99.90
3528;DHT22;1778;47.966;7.854;2024-01-27T01:24:15;3.90;99.90
3528;DHT22;1778;47.966;7.854;2024-01-27T01:25:17;3.80;99.90
3528;DHT22;1778;47.966;7.854;2024-01-27T01:26:19;3.80;99.90
3528;DHT22;1778;47.966;7.854;2024-01-27T01:27:20;3.70;99.90
3528;DHT22;1778;47.966;7.854;2024-01-27T01:28:23;3.70;99.90
3528;DHT22;1778;47.966;7.854;2024-01-27T01:29:25;3.80;99.90
3528;DHT22;1778;47.966;7.854;2024-01-27T01:30:27;3.70;99.90
3528;DHT22;1778;47.966;7.854;2024-01-27T01:31:28;3.70;99.90
3528;DHT22;1778;47.966;7.854;2024-01-27T01:32:30;3.70;99.90
3528;DHT22;1778;47.966;7.854;2024-01-27T01:33:31;3.70;99.90
3528;DHT22;1778;47.966;7.854;2024-01-27T01:34:33;3.60;99.90
3528;DHT22;1778;47.966;7.854;2024-01-27T01:35:35;3.60;99.90
3528;DHT22;1778;47.966;7.854;2024-01-27T01:36:38;3.60;99.90
3528;DHT22;1778;47.966;7.854;2024-01-27T01:37:40;3.50;99.90
3528;DHT22;1778;47.966;7.854;2024-01-27T01:38:41;3.60;99.90
3528;DHT22;1778;47.966;7.854;2024-01-27T01:39:43;3.50;99.90
3528;DHT22;1778;47.966;7.854;2024-01-27T01:40:45;3.50;99.90
3528;DHT22;1778;47.966;7.854;2024-01-27T01:41:47;3.50;99.90
3528;DHT22;1778;47.966;7.854;2024-01-27T01:42:52;3.50;99.90
3528;DHT22;1778;47.966;7.854;2024-01-27T01:43:53;3.40;99.90
3528;DHT22;1778;47.966;7.854;2024-01-27T01:44:55;3.50;99.90
3528;DHT22;1778;47.966;7.854;2024-01-27T01:45:56;3.50;99.90
3528;DHT22;1778;47.966;7.854;2024-01-27T01:46:58;3.40;99.90
3528;DHT22;1778;47.966;7.854;2024-01-27T01:48:00;3.40;99.90
3528;DHT22;1778;47.966;7.854;2024-01-27T01:49:03;3.40;99.90
3528;DHT22;1778;47.966;7.854;2024-01-27T01:50:05;3.40;99.90
3528;DHT22;1778;47.966;7.854;2024-01-27T01:51:08;3.30;99.90
3528;DHT22;1778;47.966;7.854;2024-01-27T01:52:10;3.30;99.90
3528;DHT22;1778;47.966;7.854;2024-01-27T01:53:13;3.30;99.90
3528;DHT22;1778;47.966;7.854;2024-01-27T01:54:14;3.20;99.90
3528;DHT22;1778;47.966;7.854;2024-01-27T01:55:17;3.20;99.90
3528;DHT22;1778;47.966;7.854;2024-01-27T01:56:19;3.20;99.90
3528;DHT22;1778;47.966;7.854;2024-01-27T01:57:20;3.20;99.90
3528;DHT22;1778;47.966;7.854;2024-01-27T01:58:22;3.10;99.90
3528;DHT22;1778;47.966;7.854;2024-01-27T01:59:23;3.20;99.90
3528;DHT22;1778;47.966;7.854;2024-01-27T02:00:25;3.20;99.90
3528;DHT22;1778;47.966;7.854;2024-01-27T02:01:26;3.10;99.90
3528;DHT22;1778;47.966;7.854;2024-01-27T02:02:28;3.10;99.90
3528;DHT22;1778;47.966;7.854;2024-01-27T02:03:30;3.10;99.90
3528;DHT22;1778;47.966;7.854;2024-01-27T02:04:43;3.10;99.90
3528;DHT22;1778;47.966;7.854;2024-01-27T02:05:44;3.10;99.90
3528;DHT22;1778;47.966;7.854;2024-01-27T02:06:46;3.10;99.90
3528;DHT22;1778;47.966;7.854;2024-01-27T02:07:48;3.10;99.90
3528;DHT22;1778;47.966;7.854;2024-01-27T02:08:50;3.10;99.90
3528;DHT22;1778;47.966;7.854;2024-01-27T02:09:52;3.10;99.90
3528;DHT22;1778;47.966;7.854;2024-01-27T02:10:53;3.10;99.90
3528;DHT22;1778;47.966;7.854;2024-01-27T02:11:55;3.10;99.90
3528;DHT22;1778;47.966;7.854;2024-01-27T02:12:56;3.10;99.90
3528;DHT22;1778;47.966;7.854;2024-01-27T02:13:59;3.00;99.90
3528;DHT22;1778;47.966;7.854;2024-01-27T02:15:00;3.00;99.90
3528;DHT22;1778;47.966;7.854;2024-01-27T02:16:02;3.00;99.90
3528;DHT22;1778;47.966;7.854;2024-01-27T02:17:04;3.00;99.90
3528;DHT22;1778;47.966;7.854;2024-01-27T02:18:05;3.00;99.90
3528;DHT22;1778;47.966;7.854;2024-01-27T02:19:07;3.00;99.90
3528;DHT22;1778;47.966;7.854;2024-01-27T02:20:09;3.00;99.90
3528;DHT22;1778;47.966;7.854;2024-01-27T02:21:11;3.00;99.90
3528;DHT22;1778;47.966;7.854;2024-01-27T02:22:15;3.00;99.90
3528;DHT22;1778;47.966;7.854;2024-01-27T02:23:16;2.90;99.90
3528;DHT22;1778;47.966;7.854;2024-01-27T02:24:17;2.90;99.90
3528;DHT22;1778;47.966;7.854;2024-01-27T02:25:19;2.90;99.90
3528;DHT22;1778;47.966;7.854;2024-01-27T02:26:20;2.80;99.90
3528;DHT22;1778;47.966;7.854;2024-01-27T02:27:22;2.80;99.90
3528;DHT22;1778;47.966;7.854;2024-01-27T02:28:24;2.80;99.90
3528;DHT22;1778;47.966;7.854;2024-01-27T02:29:26;2.80;99.90
3528;DHT22;1778;47.966;7.854;2024-01-27T02:30:28;2.70;99.90
3528;DHT22;1778;47.966;7.854;2024-01-27T02:31:30;2.70;99.90
3528;DHT22;1778;47.966;7.854;2024-01-27T02:32:31;2.70;99.90
3528;DHT22;1778;47.966;7.854;2024-01-27T02:33:33;2.70;99.90
3528;DHT22;1778;47.966;7.854;2024-01-27T02:34:35;2.70;99.90
3528;DHT22;1778;47.966;7.854;2024-01-27T02:35:36;2.70;99.90
3528;DHT22;1778;47.966;7.854;2024-01-27T02:36:38;2.70;99.90
3528;DHT22;1778;47.966;7.854;2024-01-27T02:37:40;2.70;99.90
3528;DHT22;1778;47.966;7.854;2024-01-27T02:38:41;2.60;99.90
3528;DHT22;1778;47.966;7.854;2024-01-27T02:39:43;2.60;99.90
3528;DHT22;1778;47.966;7.854;2024-01-27T02:40:44;2.60;99.90
3528;DHT22;1778;47.966;7.854;2024-01-27T02:41:45;2.60;99.90
3528;DHT22;1778;47.966;7.854;2024-01-27T02:42:47;2.70;99.90
3528;DHT22;1778;47.966;7.854;2024-01-27T02:43:48;2.70;99.90
3528;DHT22;1778;47.966;7.854;2024-01-27T02:44:50;2.60;99.90
3528;DHT22;1778;47.966;7.854;2024-01-27T02:45:51;2.60;99.90
3528;DHT22;1778;47.966;7.854;2024-01-27T02:46:55;2.70;99.90
3528;DHT22;1778;47.966;7.854;2024-01-27T02:47:56;2.70;99.90
3528;DHT22;1778;47.966;7.854;2024-01-27T02:49:01;2.60;99.90
3528;DHT22;1778;47.966;7.854;2024-01-27T02:50:03;2.70;99.90
3528;DHT22;1778;47.966;7.854;2024-01-27T02:51:05;2.70;99.90
3528;DHT22;1778;47.966;7.854;2024-01-27T02:52:06;2.60;99.90
3528;DHT22;1778;47.966;7.854;2024-01-27T02:53:08;2.60;99.90
3528;DHT22;1778;47.966;7.854;2024-01-27T02:54:09;2.60;99.90
3528;DHT22;1778;47.966;7.854;2024-01-27T02:55:10;2.70;99.90
3528;DHT22;1778;47.966;7.854;2024-01-27T02:56:12;2.60;99.90
3528;DHT22;1778;47.966;7.854;2024-01-27T02:57:13;2.60;99.90
3528;DHT22;1778;47.966;7.854;2024-01-27T02:58:16;2.60;99.90
3528;DHT22;1778;47.966;7.854;2024-01-27T02:59:18;2.60;99.90
3528;DHT22;1778;47.966;7.854;2024-01-27T03:00:19;2.60;99.90
3528;DHT22;1778;47.966;7.854;2024-01-27T03:01:20;2.60;99.90
3528;DHT22;1778;47.966;7.854;2024-01-27T03:02:22;2.50;99.90
3528;DHT22;1778;47.966;7.854;2024-01-27T03:03:23;2.60;99.90
3528;DHT22;1778;47.966;7.854;2024-01-27T03:04:25;2.60;99.90
3528;DHT22;1778;47.966;7.854;2024-01-27T03:05:26;2.60;99.90
3528;DHT22;1778;47.966;7.854;2024-01-27T03:06:28;2.60;99.90
3528;DHT22;1778;47.966;7.854;2024-01-27T03:07:29;2.50;99.90
3528;DHT22;1778;47.966;7.854;2024-01-27T03:08:31;2.50;99.90
3528;DHT22;1778;47.966;7.854;2024-01-27T03:09:32;2.50;99.90
3528;DHT22;1778;47.966;7.854;2024-01-27T03:10:34;2.50;99.90
3528;DHT22;1778;47.966;7.854;2024-01-27T03:11:35;2.50;99.90
3528;DHT22;1778;47.966;7.854;2024-01-27T03:12:37;2.50;99.90
3528;DHT22;1778;47.966;7.854;2024-01-27T03:13:39;2.40;99.90
3528;DHT22;1778;47.966;7.854;2024-01-27T03:14:46;2.40;99.90
3528;DHT22;1778;47.966;7.854;2024-01-27T03:15:50;2.40;99.90
3528;DHT22;1778;47.966;7.854;2024-01-27T03:16:53;2.40;99.90
3528;DHT22;1778;47.966;7.854;2024-01-27T03:17:55;2.40;99.90
3528;DHT22;1778;47.966;7.854;2024-01-27T03:18:57;2.40;99.90
3528;DHT22;1778;47.966;7.854;2024-01-27T03:19:59;2.40;99.90
3528;DHT22;1778;47.966;7.854;2024-01-27T03:21:01;2.30;99.90
3528;DHT22;1778;47.966;7.854;2024-01-27T03:22:03;2.30;99.90
3528;DHT22;1778;47.966;7.854;2024-01-27T03:23:04;2.30;99.90
3528;DHT22;1778;47.966;7.854;2024-01-27T03:24:06;2.30;99.90
3528;DHT22;1778;47.966;7.854;2024-01-27T03:25:09;2.30;99.90
3528;DHT22;1778;47.966;7.854;2024-01-27T03:26:11;2.30;99.90
3528;DHT22;1778;47.966;7.854;2024-01-27T03:27:13;2.20;99.90
3528;DHT22;1778;47.966;7.854;2024-01-27T03:28:14;2.20;99.90
3528;DHT22;1778;47.966;7.854;2024-01-27T03:29:17;2.20;99.90
3528;DHT22;1778;47.966;7.854;2024-01-27T03:30:18;2.20;99.90
3528;DHT22;1778;47.966;7.854;2024-01-27T03:31:20;2.20;99.90
3528;DHT22;1778;47.966;7.854;2024-01-27T03:32:21;2.20;99.90
3528;DHT22;1778;47.966;7.854;2024-01-27T03:33:23;2.30;99.90
3528;DHT22;1778;47.966;7.854;2024-01-27T03:34:25;2.20;99.90
3528;DHT22;1778;47.966;7.854;2024-01-27T03:35:29;2.30;99.90
3528;DHT22;1778;47.966;7.854;2024-01-27T03:36:30;2.30;99.90
3528;DHT22;1778;47.966;7.854;2024-01-27T03:37:32;2.20;99.90
3528;DHT22;1778;47.966;7.854;2024-01-27T03:38:34;2.20;99.90
3528;DHT22;1778;47.966;7.854;2024-01-27T03:39:37;2.30;99.90
3528;DHT22;1778;47.966;7.854;2024-01-27T03:40:39;2.20;99.90
3528;DHT22;1778;47.966;7.854;2024-01-27T03:41:40;2.20;99.90
3528;DHT22;1778;47.966;7.854;2024-01-27T03:42:41;2.20;99.90
3528;DHT22;1778;47.966;7.854;2024-01-27T03:43:43;2.20;99.90
3528;DHT22;1778;47.966;7.854;2024-01-27T03:44:44;2.20;99.90
3528;DHT22;1778;47.966;7.854;2024-01-27T03:45:46;2.20;99.90
3528;DHT22;1778;47.966;7.854;2024-01-27T03:46:48;2.20;99.90
3528;DHT22;1778;47.966;7.854;2024-01-27T03:47:49;2.20;99.90
3528;DHT22;1778;47.966;7.854;2024-01-27T03:48:51;2.20;99.90
3528;DHT22;1778;47.966;7.854;2024-01-27T03:49:54;2.20;99.90
3528;DHT22;1778;47.966;7.854;2024-01-27T03:50:56;2.20;99.90
3528;DHT22;1778;47.966;7.854;2024-01-27T03:51:58;2.20;99.90
3528;DHT22;1778;47.966;7.854;2024-01-27T03:52:59;2.20;99.90
3528;DHT22;1778;47.966;7.854;2024-01-27T03:54:00;2.10;99.90
3528;DHT22;1778;47.966;7.854;2024-01-27T03:55:02;2.10;99.90
3528;DHT22;1778;47.966;7.854;2024-01-27T03:56:04;2.10;99.90
3528;DHT22;1778;47.966;7.854;2024-01-27T03:57:06;2.20;99.90
3528;DHT22;1778;47.966;7.854;2024-01-27T03:58:07;2.20;99.90
3528;DHT22;1778;47.966;7.854;2024-01-27T03:59:09;2.10;99.90
3528;DHT22;1778;47.966;7.854;2024-01-27T04:00:12;2.10;99.90
3528;DHT22;1778;47.966;7.854;2024-01-27T04:01:15;2.20;99.90
3528;DHT22;1778;47.966;7.854;2024-01-27T04:02:16;2.10;99.90
3528;DHT22;1778;47.966;7.854;2024-01-27T04:03:18;2.10;99.90
3528;DHT22;1778;47.966;7.854;2024-01-27T04:04:19;2.10;99.90
3528;DHT22;1778;47.966;7.854;2024-01-27T04:05:21;2.10;99.90
3528;DHT22;1778;47.966;7.854;2024-01-27T04:06:22;2.00;99.90
3528;DHT22;1778;47.966;7.854;2024-01-27T04:07:24;2.00;99.90
3528;DHT22;1778;47.966;7.854;2024-01-27T04:08:25;2.00;99.90
3528;DHT22;1778;47.966;7.854;2024-01-27T04:09:26;2.10;99.90
3528;DHT22;1778;47.966;7.854;2024-01-27T04:10:28;2.10;99.90
3528;DHT22;1778;47.966;7.854;2024-01-27T04:11:30;2.10;99.90
3528;DHT22;1778;47.966;7.854;2024-01-27T04:12:31;2.10;99.90
3528;DHT22;1778;47.966;7.854;2024-01-27T04:13:33;2.10;99.90
3528;DHT22;1778;47.966;7.854;2024-01-27T04:14:36;2.10;99.90
3528;DHT22;1778;47.966;7.854;2024-01-27T04:15:38;2.10;99.90
3528;DHT22;1778;47.966;7.854;2024-01-27T04:16:40;2.00;99.90
3528;DHT22;1778;47.966;7.854;2024-01-27T04:17:42;2.00;99.90
3528;DHT22;1778;47.966;7.854;2024-01-27T04:18:43;2.00;99.90
3528;DHT22;1778;47.966;7.854;2024-01-27T04:19:45;2.00;99.90
3528;DHT22;1778;47.966;7.854;2024-01-27T04:20:46;1.90;99.90
3528;DHT22;1778;47.966;7.854;2024-01-27T04:21:49;2.00;99.90
3528;DHT22;1778;47.966;7.854;2024-01-27T04:22:51;2.00;99.90
3528;DHT22;1778;47.966;7.854;2024-01-27T04:23:52;2.00;99.90
3528;DHT22;1778;47.966;7.854;2024-01-27T04:24:54;2.10;99.90
3528;DHT22;1778;47.966;7.854;2024-01-27T04:25:55;2.00;99.90
3528;DHT22;1778;47.966;7.854;2024-01-27T04:26:59;2.00;99.90
3528;DHT22;1778;47.966;7.854;2024-01-27T04:28:00;2.00;99.90
3528;DHT22;1778;47.966;7.854;2024-01-27T04:29:02;1.90;99.90
3528;DHT22;1778;47.966;7.854;2024-01-27T04:30:04;2.00;99.90
3528;DHT22;1778;47.966;7.854;2024-01-27T04:31:06;1.90;99.90
3528;DHT22;1778;47.966;7.854;2024-01-27T04:32:07;1.90;99.90
3528;DHT22;1778;47.966;7.854;2024-01-27T04:33:09;1.90;99.90
3528;DHT22;1778;47.966;7.854;2024-01-27T04:34:12;1.90;99.90
3528;DHT22;1778;47.966;7.854;2024-01-27T04:35:14;1.90;99.90
3528;DHT22;1778;47.966;7.854;2024-01-27T04:36:28;1.80;99.90
3528;DHT22;1778;47.966;7.854;2024-01-27T04:37:32;1.80;99.90
3528;DHT22;1778;47.966;7.854;2024-01-27T04:38:33;1.80;99.90
3528;DHT22;1778;47.966;7.854;2024-01-27T04:39:35;1.80;99.90
3528;DHT22;1778;47.966;7.854;2024-01-27T04:40:36;1.80;99.90
3528;DHT22;1778;47.966;7.854;2024-01-27T04:41:42;1.80;99.90
3528;DHT22;1778;47.966;7.854;2024-01-27T04:42:44;1.80;99.90
3528;DHT22;1778;47.966;7.854;2024-01-27T04:43:47;1.80;99.90
3528;DHT22;1778;47.966;7.854;2024-01-27T04:44:49;1.80;99.90
3528;DHT22;1778;47.966;7.854;2024-01-27T04:45:50;1.80;99.90
3528;DHT22;1778;47.966;7.854;2024-01-27T04:46:52;1.70;99.90
3528;DHT22;1778;47.966;7.854;2024-01-27T04:47:54;1.80;99.90
3528;DHT22;1778;47.966;7.854;2024-01-27T04:48:55;1.70;99.90
3528;DHT22;1778;47.966;7.854;2024-01-27T04:49:57;1.70;99.90
3528;DHT22;1778;47.966;7.854;2024-01-27T04:50:58;1.70;99.90
3528;DHT22;1778;47.966;7.854;2024-01-27T04:52:00;1.70;99.90
3528;DHT22;1778;47.966;7.854;2024-01-27T04:53:02;1.60;99.90
3528;DHT22;1778;47.966;7.854;2024-01-27T04:54:03;1.60;99.90
3528;DHT22;1778;47.966;7.854;2024-01-27T04:55:05;1.60;99.90
3528;DHT22;1778;47.966;7.854;2024-01-27T04:56:07;1.60;99.90
3528;DHT22;1778;47.966;7.854;2024-01-27T04:57:10;1.70;99.90
3528;DHT22;1778;47.966;7.854;2024-01-27T04:58:12;1.60;99.90
3528;DHT22;1778;47.966;7.854;2024-01-27T04:59:13;1.60;99.90
3528;DHT22;1778;47.966;7.854;2024-01-27T05:00:15;1.60;99.90
3528;DHT22;1778;47.966;7.854;2024-01-27T05:01:17;1.60;99.90
3528;DHT22;1778;47.966;7.854;2024-01-27T05:02:18;1.60;99.90
3528;DHT22;1778;47.966;7.854;2024-01-27T05:03:20;1.60;99.90
3528;DHT22;1778;47.966;7.854;2024-01-27T05:04:21;1.60;99.90
3528;DHT22;1778;47.966;7.854;2024-01-27T05:05:23;1.50;99.90
3528;DHT22;1778;47.966;7.854;2024-01-27T05:06:24;1.50;99.90
3528;DHT22;1778;47.966;7.854;2024-01-27T05:07:26;1.60;99.90
3528;DHT22;1778;47.966;7.854;2024-01-27T05:08:27;1.60;99.90
3528;DHT22;1778;47.966;7.854;2024-01-27T05:09:29;1.50;99.90
3528;DHT22;1778;47.966;7.854;2024-01-27T05:10:30;1.50;99.90
3528;DHT22;1778;47.966;7.854;2024-01-27T05:11:32;1.50;99.90
3528;DHT22;1778;47.966;7.854;2024-01-27T05:12:34;1.50;99.90
3528;DHT22;1778;47.966;7.854;2024-01-27T05:13:35;1.50;99.90
3528;DHT22;1778;47.966;7.854;2024-01-27T05:14:43;1.50;99.90
3528;DHT22;1778;47.966;7.854;2024-01-27T05:15:46;1.60;99.90
3528;DHT22;1778;47.966;7.854;2024-01-27T05:16:47;1.60;99.90
3528;DHT22;1778;47.966;7.854;2024-01-27T05:17:49;1.50;99.90
3528;DHT22;1778;47.966;7.854;2024-01-27T05:18:51;1.50;99.90
3528;DHT22;1778;47.966;7.854;2024-01-27T05:19:52;1.60;99.90
3528;DHT22;1778;47.966;7.854;2024-01-27T05:20:54;1.50;99.90
3528;DHT22;1778;47.966;7.854;2024-01-27T05:21:55;1.50;99.90
3528;DHT22;1778;47.966;7.854;2024-01-27T05:22:56;1.50;99.90
3528;DHT22;1778;47.966;7.854;2024-01-27T05:23:58;1.50;99.90
3528;DHT22;1778;47.966;7.854;2024-01-27T05:24:59;1.50;99.90
3528;DHT22;1778;47.966;7.854;2024-01-27T05:26:01;1.40;99.90
3528;DHT22;1778;47.966;7.854;2024-01-27T05:27:02;1.50;99.90
3528;DHT22;1778;47.966;7.854;2024-01-27T05:28:04;1.50;99.90
3528;DHT22;1778;47.966;7.854;2024-01-27T05:29:06;1.50;99.90
3528;DHT22;1778;47.966;7.854;2024-01-27T05:30:08;1.50;99.90
3528;DHT22;1778;47.966;7.854;2024-01-27T05:31:10;1.40;99.90
3528;DHT22;1778;47.966;7.854;2024-01-27T05:32:12;1.50;99.90
3528;DHT22;1778;47.966;7.854;2024-01-27T05:33:13;1.40;99.90
3528;DHT22;1778;47.966;7.854;2024-01-27T05:34:15;1.40;99.90
3528;DHT22;1778;47.966;7.854;2024-01-27T05:35:16;1.40;99.90
3528;DHT22;1778;47.966;7.854;2024-01-27T05:36:18;1.40;99.90
3528;DHT22;1778;47.966;7.854;2024-01-27T05:37:19;1.40;99.90
3528;DHT22;1778;47.966;7.854;2024-01-27T05:38:21;1.40;99.90
3528;DHT22;1778;47.966;7.854;2024-01-27T05:39:23;1.40;99.90
3528;DHT22;1778;47.966;7.854;2024-01-27T05:40:24;1.30;99.90
3528;DHT22;1778;47.966;7.854;2024-01-27T05:41:27;1.30;99.90
3528;DHT22;1778;47.966;7.854;2024-01-27T05:42:30;1.30;99.90
3528;DHT22;1778;47.966;7.854;2024-01-27T05:43:31;1.30;99.90
3528;DHT22;1778;47.966;7.854;2024-01-27T05:44:33;1.30;99.90
3528;DHT22;1778;47.966;7.854;2024-01-27T05:45:34;1.20;99.90
3528;DHT22;1778;47.966;7.854;2024-01-27T05:46:36;1.30;99.90
3528;DHT22;1778;47.966;7.854;2024-01-27T05:47:37;1.30;99.90
3528;DHT22;1778;47.966;7.854;2024-01-27T05:48:39;1.30;99.90
3528;DHT22;1778;47.966;7.854;2024-01-27T05:49:41;1.30;99.90
3528;DHT22;1778;47.966;7.854;2024-01-27T05:50:43;1.30;99.90
3528;DHT22;1778;47.966;7.854;2024-01-27T05:51:45;1.30;99.90
3528;DHT22;1778;47.966;7.854;2024-01-27T05:52:46;1.30;99.90
3528;DHT22;1778;47.966;7.854;2024-01-27T05:53:48;1.30;99.90
3528;DHT22;1778;47.966;7.854;2024-01-27T05:54:49;1.30;99.90
3528;DHT22;1778;47.966;7.854;2024-01-27T05:55:51;1.20;99.90
3528;DHT22;1778;47.966;7.854;2024-01-27T05:56:53;1.20;99.90
3528;DHT22;1778;47.966;7.854;2024-01-27T05:57:55;1.20;99.90
3528;DHT22;1778;47.966;7.854;2024-01-27T05:58:58;1.30;99.90
3528;DHT22;1778;47.966;7.854;2024-01-27T05:59:59;1.30;99.90
3528;DHT22;1778;47.966;7.854;2024-01-27T06:01:02;1.30;99.90
3528;DHT22;1778;47.966;7.854;2024-01-27T06:02:04;1.30;99.90
3528;DHT22;1778;47.966;7.854;2024-01-27T06:03:05;1.30;99.90
3528;DHT22;1778;47.966;7.854;2024-01-27T06:04:08;1.30;99.90
3528;DHT22;1778;47.966;7.854;2024-01-27T06:05:09;1.30;99.90
3528;DHT22;1778;47.966;7.854;2024-01-27T06:06:11;1.30;99.90
3528;DHT22;1778;47.966;7.854;2024-01-27T06:07:12;1.20;99.90
3528;DHT22;1778;47.966;7.854;2024-01-27T06:08:14;1.20;99.90
3528;DHT22;1778;47.966;7.854;2024-01-27T06:09:15;1.20;99.90
3528;DHT22;1778;47.966;7.854;2024-01-27T06:10:17;1.20;99.90
3528;DHT22;1778;47.966;7.854;2024-01-27T06:11:26;1.20;99.90
3528;DHT22;1778;47.966;7.854;2024-01-27T06:12:28;1.20;99.90
3528;DHT22;1778;47.966;7.854;2024-01-27T06:13:29;1.20;99.90
3528;DHT22;1778;47.966;7.854;2024-01-27T06:14:31;1.20;99.90
3528;DHT22;1778;47.966;7.854;2024-01-27T06:15:33;1.20;99.90
3528;DHT22;1778;47.966;7.854;2024-01-27T06:16:35;1.20;99.90
3528;DHT22;1778;47.966;7.854;2024-01-27T06:17:38;1.20;99.90
3528;DHT22;1778;47.966;7.854;2024-01-27T06:18:39;1.20;99.90
3528;DHT22;1778;47.966;7.854;2024-01-27T06:19:41;1.20;99.90
3528;DHT22;1778;47.966;7.854;2024-01-27T06:20:42;1.20;99.90
3528;DHT22;1778;47.966;7.854;2024-01-27T06:21:44;1.20;99.90
3528;DHT22;1778;47.966;7.854;2024-01-27T06:22:46;1.20;99.90
3528;DHT22;1778;47.966;7.854;2024-01-27T06:23:47;1.30;99.90
3528;DHT22;1778;47.966;7.854;2024-01-27T06:24:48;1.30;99.90
3528;DHT22;1778;47.966;7.854;2024-01-27T06:25:50;1.30;99.90
3528;DHT22;1778;47.966;7.854;2024-01-27T06:26:52;1.30;99.90
3528;DHT22;1778;47.966;7.854;2024-01-27T06:27:53;1.30;99.90
3528;DHT22;1778;47.966;7.854;2024-01-27T06:28:55;1.30;99.90
3528;DHT22;1778;47.966;7.854;2024-01-27T06:29:57;1.20;99.90
3528;DHT22;1778;47.966;7.854;2024-01-27T06:30:59;1.30;99.90
3528;DHT22;1778;47.966;7.854;2024-01-27T06:32:00;1.30;99.90
3528;DHT22;1778;47.966;7.854;2024-01-27T06:33:02;1.20;99.90
3528;DHT22;1778;47.966;7.854;2024-01-27T06:34:04;1.20;99.90
3528;DHT22;1778;47.966;7.854;2024-01-27T06:35:06;1.30;99.90
3528;DHT22;1778;47.966;7.854;2024-01-27T06:36:08;1.20;99.90
3528;DHT22;1778;47.966;7.854;2024-01-27T06:37:11;1.20;99.90
3528;DHT22;1778;47.966;7.854;2024-01-27T06:38:12;1.20;99.90
3528;DHT22;1778;47.966;7.854;2024-01-27T06:39:13;1.10;99.90
3528;DHT22;1778;47.966;7.854;2024-01-27T06:40:15;1.10;99.90
3528;DHT22;1778;47.966;7.854;2024-01-27T06:41:16;1.10;99.90
3528;DHT22;1778;47.966;7.854;2024-01-27T06:42:18;1.10;99.90
3528;DHT22;1778;47.966;7.854;2024-01-27T06:43:19;1.10;99.90
3528;DHT22;1778;47.966;7.854;2024-01-27T06:44:21;1.20;99.90
3528;DHT22;1778;47.966;7.854;2024-01-27T06:45:22;1.20;99.90
3528;DHT22;1778;47.966;7.854;2024-01-27T06:46:24;1.20;99.90
3528;DHT22;1778;47.966;7.854;2024-01-27T06:47:26;1.20;99.90
3528;DHT22;1778;47.966;7.854;2024-01-27T06:48:27;1.20;99.90
3528;DHT22;1778;47.966;7.854;2024-01-27T06:49:29;1.10;99.90
3528;DHT22;1778;47.966;7.854;2024-01-27T06:50:31;1.20;99.90